createdAt,value
2019-03-24T00:00:30.733Z,100869.00
2019-03-24T00:03:00.141Z,100885.00
2019-03-24T00:05:29.154Z,100880.00
2019-03-24T00:07:58.302Z,100879.00
2019-03-24T00:10:27.947Z,100873.00
2019-03-24T00:12:57.004Z,100877.00
2019-03-24T00:15:26.825Z,100871.00
2019-03-24T00:17:56.159Z,100885.00
2019-03-24T00:20:25.138Z,100888.00
2019-03-24T00:22:54.254Z,100874.00
2019-03-24T00:25:23.269Z,100874.00
2019-03-24T00:27:52.418Z,100874.00
2019-03-24T00:30:21.560Z,100875.00
2019-03-24T00:32:50.820Z,100873.00
2019-03-24T00:35:19.876Z,100877.00
2019-03-24T00:37:48.968Z,100884.00
2019-03-24T00:40:17.990Z,100882.00
2019-03-24T00:42:46.960Z,100882.00
2019-03-24T00:45:16.055Z,100883.00
2019-03-24T00:47:45.096Z,100887.00
2019-03-24T00:50:14.221Z,100888.00
2019-03-24T00:52:43.696Z,100885.00
2019-03-24T00:55:14.037Z,100888.00
2019-03-24T00:57:42.975Z,100891.00
2019-03-24T01:00:14.095Z,100885.00
2019-03-24T01:02:43.177Z,100898.00
2019-03-24T01:05:12.758Z,100899.00
2019-03-24T01:07:42.109Z,100897.00
2019-03-24T01:10:11.437Z,100905.00
2019-03-24T01:12:40.378Z,100902.00
2019-03-24T01:15:10.011Z,100906.00
2019-03-24T01:17:39.933Z,100908.00
2019-03-24T01:20:09.893Z,100909.00
2019-03-24T01:22:39.189Z,100908.00
2019-03-24T01:25:08.343Z,100910.00
2019-03-24T01:27:37.336Z,100902.00
2019-03-24T01:30:07.705Z,100910.00
2019-03-24T01:32:37.006Z,100909.00
2019-03-24T01:35:07.778Z,100907.00
2019-03-24T01:37:36.449Z,100886.00
2019-03-24T01:40:06.982Z,100907.00
2019-03-24T01:42:36.542Z,100899.00
2019-03-24T01:45:07.950Z,100914.00
2019-03-24T01:47:36.949Z,100905.00
2019-03-24T01:50:06.973Z,100914.00
2019-03-24T01:52:36.022Z,100924.00
2019-03-24T01:55:06.590Z,100927.00
2019-03-24T01:57:35.544Z,100923.00
2019-03-24T02:00:04.978Z,100922.00
2019-03-24T02:02:33.923Z,100923.00
2019-03-24T02:05:03.082Z,100920.00
2019-03-24T02:07:32.045Z,100920.00
2019-03-24T02:10:01.455Z,100916.00
2019-03-24T02:12:30.470Z,100928.00
2019-03-24T02:14:59.500Z,100929.00
2019-03-24T02:17:28.458Z,100929.00
2019-03-24T02:19:57.490Z,100931.00
2019-03-24T02:22:26.415Z,100928.00
2019-03-24T02:24:55.448Z,100927.00
2019-03-24T02:27:24.671Z,100941.00
2019-03-24T02:29:53.691Z,100933.00
2019-03-24T02:32:22.716Z,100940.00
2019-03-24T02:34:51.710Z,100941.00
2019-03-24T02:37:20.738Z,100950.00
2019-03-24T02:39:49.693Z,100942.00
2019-03-24T02:42:18.845Z,100941.00
2019-03-24T02:44:47.852Z,100942.00
2019-03-24T02:47:17.431Z,100957.00
2019-03-24T02:49:46.455Z,100954.00
2019-03-24T02:52:15.487Z,100957.00
2019-03-24T02:54:44.560Z,100957.00
2019-03-24T02:57:13.579Z,100946.00
2019-03-24T02:59:42.599Z,100954.00
2019-03-24T03:02:11.619Z,100958.00
2019-03-24T03:04:40.603Z,100948.00
2019-03-24T03:07:09.653Z,100944.00
2019-03-24T03:09:38.819Z,100950.00
2019-03-24T03:12:07.895Z,100955.00
2019-03-24T03:14:36.928Z,100960.00
2019-03-24T03:17:06.152Z,100962.00
2019-03-24T03:19:35.427Z,100969.00
2019-03-24T03:22:04.521Z,100958.00
2019-03-24T03:24:33.515Z,100950.00
2019-03-24T03:27:03.086Z,100954.00
2019-03-24T03:29:32.337Z,100959.00
2019-03-24T03:32:02.242Z,100952.00
2019-03-24T03:34:31.449Z,100952.00
2019-03-24T03:37:02.060Z,100956.00
2019-03-24T03:39:31.377Z,100958.00
2019-03-24T03:42:01.560Z,100944.00
2019-03-24T03:44:30.515Z,100943.00
2019-03-24T03:46:59.929Z,100942.00
2019-03-24T03:49:29.227Z,100937.00
2019-03-24T03:51:58.140Z,100946.00
2019-03-24T03:54:27.160Z,100954.00
2019-03-24T03:56:56.465Z,100950.00
2019-03-24T03:59:25.818Z,100940.00
2019-03-24T04:01:55.030Z,100942.00
2019-03-24T04:04:24.242Z,100953.00
2019-03-24T04:06:53.253Z,100948.00
2019-03-24T04:09:22.346Z,100950.00
2019-03-24T04:11:51.341Z,100956.00
2019-03-24T04:14:20.590Z,100951.00
2019-03-24T04:16:49.544Z,100948.00
2019-03-24T04:19:18.628Z,100959.00
2019-03-24T04:21:47.594Z,100962.00
2019-03-24T04:24:16.650Z,100953.00
2019-03-24T04:26:48.059Z,100961.00
2019-03-24T04:29:17.064Z,100966.00
2019-03-24T04:31:46.299Z,100957.00
2019-03-24T04:34:15.284Z,100951.00
2019-03-24T04:36:44.327Z,100962.00
2019-03-24T04:39:13.273Z,100958.00
2019-03-24T04:41:42.280Z,100965.00
2019-03-24T04:44:11.293Z,100953.00
2019-03-24T04:46:40.258Z,100958.00
2019-03-24T04:49:09.211Z,100947.00
2019-03-24T04:51:38.149Z,100961.00
2019-03-24T04:54:07.235Z,100960.00
2019-03-24T04:56:36.653Z,100969.00
2019-03-24T04:59:06.335Z,100965.00
2019-03-24T05:01:35.571Z,100969.00
2019-03-24T05:04:05.027Z,100965.00
2019-03-24T05:06:35.029Z,100966.00
2019-03-24T05:09:04.681Z,100966.00
2019-03-24T05:11:33.665Z,100960.00
2019-03-24T05:14:02.651Z,100955.00
2019-03-24T05:16:31.650Z,100958.00
2019-03-24T05:19:02.150Z,100961.00
2019-03-24T05:21:31.523Z,100967.00
2019-03-24T05:24:01.992Z,100966.00
2019-03-24T05:26:31.092Z,100970.00
2019-03-24T05:29:00.150Z,100968.00
2019-03-24T05:31:29.408Z,100957.00
2019-03-24T05:33:58.428Z,100957.00
2019-03-24T05:36:27.376Z,100961.00
2019-03-24T05:38:56.543Z,100972.00
2019-03-24T05:41:25.655Z,100969.00
2019-03-24T05:43:54.580Z,100975.00
2019-03-24T05:46:23.622Z,100979.00
2019-03-24T05:48:52.566Z,100975.00
2019-03-24T05:51:21.586Z,100974.00
2019-03-24T05:53:50.862Z,100976.00
2019-03-24T05:56:22.983Z,100965.00
2019-03-24T05:58:51.981Z,100970.00
2019-03-24T06:01:20.947Z,100984.00
2019-03-24T06:03:50.294Z,100983.00
2019-03-24T06:06:19.192Z,100981.00
2019-03-24T06:08:48.147Z,100970.00
2019-03-24T06:11:17.205Z,100974.00
2019-03-24T06:13:46.142Z,100976.00
2019-03-24T06:16:15.126Z,100972.00
2019-03-24T06:18:44.439Z,100988.00
2019-03-24T06:21:13.457Z,100980.00
2019-03-24T06:23:42.521Z,100985.00
2019-03-24T06:26:11.774Z,100983.00
2019-03-24T06:28:40.972Z,100980.00
2019-03-24T06:31:10.193Z,100993.00
2019-03-24T06:33:39.421Z,100988.00
2019-03-24T06:36:09.186Z,100994.00
2019-03-24T06:38:38.649Z,100997.00
2019-03-24T06:41:08.100Z,100994.00
2019-03-24T06:43:37.542Z,100991.00
2019-03-24T06:46:07.175Z,100995.00
2019-03-24T06:48:36.448Z,100995.00
2019-03-24T06:51:05.676Z,100991.00
2019-03-24T06:53:34.938Z,101000.00
2019-03-24T06:56:05.869Z,100999.00
2019-03-24T06:58:35.185Z,100995.00
2019-03-24T07:01:04.284Z,101006.00
2019-03-24T07:03:33.254Z,101006.00
2019-03-24T07:06:02.497Z,101003.00
2019-03-24T07:08:31.778Z,100996.00
2019-03-24T07:11:02.568Z,101006.00
2019-03-24T07:13:31.152Z,101005.00
2019-03-24T07:16:02.505Z,100999.00
2019-03-24T07:18:31.398Z,101002.00
2019-03-24T07:21:01.370Z,100997.00
2019-03-24T07:23:30.300Z,100989.00
2019-03-24T07:25:59.404Z,100989.00
2019-03-24T07:28:28.655Z,100992.00
2019-03-24T07:30:57.676Z,100996.00
2019-03-24T07:33:26.639Z,100995.00
2019-03-24T07:35:55.708Z,100997.00
2019-03-24T07:38:24.877Z,100991.00
2019-03-24T07:40:54.163Z,100992.00
2019-03-24T07:43:23.529Z,100986.00
2019-03-24T07:45:53.087Z,100984.00
2019-03-24T07:48:22.283Z,100985.00
2019-03-24T07:50:52.084Z,100986.00
2019-03-24T07:53:21.205Z,100986.00
2019-03-24T07:55:50.451Z,100991.00
2019-03-24T07:58:19.466Z,100983.00
2019-03-24T08:00:48.692Z,100985.00
2019-03-24T08:03:17.882Z,100982.00
2019-03-24T08:05:47.272Z,100978.00
2019-03-24T08:08:16.236Z,100971.00
2019-03-24T08:10:45.325Z,100970.00
2019-03-24T08:13:14.491Z,100969.00
2019-03-24T08:15:43.779Z,100968.00
2019-03-24T08:18:13.492Z,100959.00
2019-03-24T08:20:42.792Z,100964.00
2019-03-24T08:23:12.623Z,100968.00
2019-03-24T08:25:41.963Z,100965.00
2019-03-24T08:28:11.098Z,100975.00
2019-03-24T08:30:40.304Z,100975.00
2019-03-24T08:33:09.273Z,100972.00
2019-03-24T08:35:38.274Z,100966.00
2019-03-24T08:38:07.566Z,100966.00
2019-03-24T08:40:36.826Z,100970.00
2019-03-24T08:43:06.447Z,100971.00
2019-03-24T08:45:35.426Z,100976.00
2019-03-24T08:48:05.071Z,100964.00
2019-03-24T08:50:34.394Z,100968.00
2019-03-24T08:53:03.619Z,100948.00
2019-03-24T08:55:32.840Z,100955.00
2019-03-24T08:58:02.515Z,100958.00
2019-03-24T09:00:31.804Z,100966.00
2019-03-24T09:03:00.837Z,100964.00
2019-03-24T09:05:30.198Z,100955.00
2019-03-24T09:07:59.491Z,100961.00
2019-03-24T09:10:28.780Z,100946.00
2019-03-24T09:12:58.406Z,100947.00
2019-03-24T09:15:27.712Z,100956.00
2019-03-24T09:17:56.704Z,100966.00
2019-03-24T09:20:25.678Z,100969.00
2019-03-24T09:22:54.904Z,100975.00
2019-03-24T09:25:24.733Z,100965.00
2019-03-24T09:27:54.213Z,100968.00
2019-03-24T09:30:35.365Z,100974.00
2019-03-24T09:33:05.411Z,100990.00
2019-03-24T09:35:34.967Z,100980.00
2019-03-24T09:38:06.078Z,100978.00
2019-03-24T09:40:36.399Z,100999.00
2019-03-24T09:43:06.015Z,100989.00
2019-03-24T09:45:35.201Z,100988.00
2019-03-24T09:48:05.531Z,100985.00
2019-03-24T09:50:34.484Z,100987.00
2019-03-24T09:53:04.039Z,100985.00
2019-03-24T09:55:33.063Z,100980.00
2019-03-24T09:58:02.073Z,100978.00
2019-03-24T10:00:31.000Z,100974.00
2019-03-24T10:03:00.007Z,100971.00
2019-03-24T10:05:29.377Z,100956.00
2019-03-24T10:07:58.736Z,100960.00
2019-03-24T10:10:27.951Z,100956.00
2019-03-24T10:12:56.913Z,100947.00
2019-03-24T10:15:25.987Z,100954.00
2019-03-24T10:17:55.287Z,100937.00
2019-03-24T10:20:24.254Z,100935.00
2019-03-24T10:22:53.555Z,100939.00
2019-03-24T10:25:22.563Z,100945.00
2019-03-24T10:27:51.596Z,100933.00
2019-03-24T10:30:20.690Z,100934.00
2019-03-24T10:32:50.220Z,100921.00
2019-03-24T10:35:19.784Z,100925.00
2019-03-24T10:37:48.828Z,100925.00
2019-03-24T10:40:28.212Z,100920.00
2019-03-24T10:42:49.459Z,100911.00
2019-03-24T10:45:18.681Z,100907.00
2019-03-24T10:47:48.178Z,100898.00
2019-03-24T10:50:17.851Z,100910.00
2019-03-24T10:52:46.938Z,100910.00
2019-03-24T10:55:16.206Z,100891.00
2019-03-24T10:57:45.201Z,100902.00
2019-03-24T11:00:16.993Z,100885.00
2019-03-24T11:02:46.300Z,100877.00
2019-03-24T11:05:15.653Z,100886.00
2019-03-24T11:07:45.300Z,100885.00
2019-03-24T11:10:14.429Z,100862.00
2019-03-24T11:12:43.702Z,100879.00
2019-03-24T11:15:12.823Z,100871.00
2019-03-24T11:17:42.503Z,100879.00
2019-03-24T11:20:11.953Z,100870.00
2019-03-24T11:22:40.892Z,100876.00
2019-03-24T11:25:11.058Z,100868.00
2019-03-24T11:27:40.631Z,100860.00
2019-03-24T11:30:12.002Z,100858.00
2019-03-24T11:32:41.475Z,100855.00
2019-03-24T11:35:12.514Z,100854.00
2019-03-24T11:37:41.464Z,100857.00
2019-03-24T11:40:11.763Z,100844.00
2019-03-24T11:42:41.162Z,100830.00
2019-03-24T11:45:11.870Z,100821.00
2019-03-24T11:47:40.738Z,100818.00
2019-03-24T11:50:11.047Z,100819.00
2019-03-24T11:52:40.074Z,100814.00
2019-03-24T11:55:10.314Z,100814.00
2019-03-24T11:57:39.938Z,100811.00
2019-03-24T12:00:11.438Z,100806.00
2019-03-24T12:02:40.708Z,100811.00
2019-03-24T12:05:10.030Z,100813.00
2019-03-24T12:07:39.301Z,100816.00
2019-03-24T12:10:11.957Z,100808.00
2019-03-24T12:12:41.278Z,100811.00
2019-03-24T12:15:11.246Z,100797.00
2019-03-24T12:17:40.509Z,100790.00
2019-03-24T12:20:10.244Z,100782.00
2019-03-24T12:22:40.429Z,100776.00
2019-03-24T12:25:10.140Z,100773.00
2019-03-24T12:27:39.345Z,100772.00
2019-03-24T12:30:10.093Z,100770.00
2019-03-24T12:32:39.102Z,100768.00
2019-03-24T12:35:09.311Z,100765.00
2019-03-24T12:37:39.054Z,100762.00
2019-03-24T12:40:10.395Z,100752.00
2019-03-24T12:42:40.262Z,100745.00
2019-03-24T12:45:09.795Z,100757.00
2019-03-24T12:47:38.766Z,100736.00
2019-03-24T12:50:10.022Z,100737.00
2019-03-24T12:52:39.572Z,100730.00
2019-03-24T12:55:09.849Z,100725.00
2019-03-24T12:57:38.782Z,100728.00
2019-03-24T13:00:09.615Z,100717.00
2019-03-24T13:02:38.622Z,100716.00
2019-03-24T13:05:09.303Z,100719.00
2019-03-24T13:07:38.052Z,100709.00
2019-03-24T13:10:08.962Z,100708.00
2019-03-24T13:12:38.645Z,100701.00
2019-03-24T13:15:08.385Z,100690.00
2019-03-24T13:17:37.812Z,100692.00
2019-03-24T13:20:07.495Z,100697.00
2019-03-24T13:22:36.759Z,100693.00
2019-03-24T13:49:50.099Z,100668.00
2019-03-24T13:52:19.928Z,100684.00
2019-03-24T13:55:56.687Z,100677.00
2019-03-24T13:58:27.159Z,100676.00
2019-03-24T14:00:57.432Z,100670.00
2019-03-24T14:03:27.641Z,100662.00
2019-03-24T14:05:57.696Z,100669.00
2019-03-24T14:08:27.792Z,100662.00
2019-03-24T14:10:57.990Z,100659.00
2019-03-24T14:13:27.209Z,100659.00
2019-03-24T14:15:57.369Z,100655.00
2019-03-24T14:18:27.474Z,100641.00
2019-03-24T14:20:57.819Z,100644.00
2019-03-24T14:23:28.601Z,100647.00
2019-03-24T14:25:59.097Z,100637.00
2019-03-24T14:28:29.836Z,100624.00
2019-03-24T14:30:59.191Z,100624.00
2019-03-24T14:33:29.693Z,100633.00
2019-03-24T14:35:59.040Z,100625.00
2019-03-24T14:38:29.218Z,100627.00
2019-03-24T14:41:00.114Z,100617.00
2019-03-24T14:43:30.390Z,100612.00
2019-03-24T14:46:00.433Z,100613.00
2019-03-24T14:48:30.474Z,100605.00
2019-03-24T14:51:02.568Z,100607.00
2019-03-24T14:53:32.796Z,100600.00
2019-03-24T14:56:03.140Z,100604.00
2019-03-24T14:58:33.415Z,100594.00
2019-03-24T15:01:03.929Z,100579.00
2019-03-24T15:03:34.814Z,100595.00
2019-03-24T15:06:05.104Z,100583.00
2019-03-24T15:08:35.277Z,100576.00
2019-03-24T15:11:05.600Z,100583.00
2019-03-24T15:13:35.968Z,100574.00
2019-03-24T15:16:06.011Z,100566.00
2019-03-24T15:18:36.320Z,100558.00
2019-03-24T15:21:06.719Z,100560.00
2019-03-24T15:23:37.362Z,100561.00
2019-03-24T15:26:06.618Z,100559.00
2019-03-24T15:30:36.146Z,100561.00
2019-03-24T15:33:06.501Z,100562.00
2019-03-24T15:35:36.579Z,100564.00
2019-03-24T15:38:08.933Z,100559.00
2019-03-24T15:40:39.380Z,100565.00
2019-03-24T15:43:09.678Z,100552.00
2019-03-24T15:45:40.678Z,100544.00
2019-03-24T15:48:10.960Z,100535.00
2019-03-24T15:50:41.909Z,100539.00
2019-03-24T15:53:12.592Z,100539.00
2019-03-24T15:55:42.791Z,100535.00
2019-03-24T15:58:12.908Z,100535.00
2019-03-24T16:00:48.530Z,100541.00
2019-03-24T16:03:19.337Z,100542.00
2019-03-24T16:05:49.697Z,100535.00
2019-03-24T16:08:20.330Z,100529.00
2019-03-24T16:10:49.614Z,100532.00
2019-03-24T16:13:18.949Z,100524.00
2019-03-24T16:15:49.133Z,100521.00
2019-03-24T16:20:32.902Z,100510.00
2019-03-24T16:23:02.733Z,100506.00
2019-03-24T16:25:32.936Z,100501.00
2019-03-24T16:28:03.713Z,100508.00
2019-03-24T16:30:33.274Z,100495.00
2019-03-24T16:33:03.734Z,100489.00
2019-03-24T16:35:33.778Z,100485.00
2019-03-24T16:38:23.572Z,100486.00
2019-03-24T16:40:53.860Z,100485.00
2019-03-24T16:43:24.294Z,100484.00
2019-03-24T16:47:07.950Z,100489.00
2019-03-24T16:49:38.158Z,100486.00
2019-03-24T16:52:08.291Z,100490.00
2019-03-24T16:55:12.048Z,100485.00
2019-03-24T16:57:41.137Z,100480.00
2019-03-24T17:00:14.981Z,100468.00
2019-03-24T17:02:45.377Z,100468.00
2019-03-24T17:05:15.784Z,100471.00
2019-03-24T17:07:46.482Z,100466.00
2019-03-24T17:10:16.156Z,100464.00
2019-03-24T17:12:46.957Z,100465.00
2019-03-24T17:15:37.826Z,100464.00
2019-03-24T17:18:07.114Z,100459.00
2019-03-24T17:20:36.520Z,100464.00
2019-03-24T17:23:05.849Z,100467.00
2019-03-24T17:25:36.025Z,100468.00
2019-03-24T17:28:05.411Z,100456.00
2019-03-24T17:30:34.067Z,100464.00
2019-03-24T17:33:03.493Z,100462.00
2019-03-24T17:35:32.827Z,100462.00
2019-03-24T17:38:02.788Z,100459.00
2019-03-24T17:40:38.538Z,100462.00
2019-03-24T17:43:03.655Z,100450.00
2019-03-24T17:45:32.973Z,100451.00
2019-03-24T17:48:02.499Z,100449.00
2019-03-24T17:50:31.781Z,100448.00
2019-03-24T17:53:01.227Z,100440.00
2019-03-24T17:55:31.188Z,100443.00
2019-03-24T17:58:01.181Z,100439.00
2019-03-24T18:00:42.436Z,100438.00
2019-03-24T18:03:11.152Z,100433.00
2019-03-24T18:05:41.281Z,100435.00
2019-03-24T18:08:10.864Z,100422.00
2019-03-24T18:10:40.518Z,100421.00
2019-03-24T18:13:09.986Z,100417.00
2019-03-24T18:15:39.497Z,100417.00
2019-03-24T18:18:08.841Z,100429.00
2019-03-24T18:20:38.918Z,100419.00
2019-03-24T18:23:08.166Z,100428.00
2019-03-24T18:25:37.903Z,100422.00
2019-03-24T18:28:07.677Z,100414.00
2019-03-24T18:30:39.168Z,100406.00
2019-03-24T18:33:08.887Z,100408.00
2019-03-24T18:35:39.050Z,100414.00
2019-03-24T18:38:08.721Z,100411.00
2019-03-24T18:40:37.901Z,100413.00
2019-03-24T18:43:07.833Z,100410.00
2019-03-24T18:45:37.806Z,100411.00
2019-03-24T18:48:07.827Z,100410.00
2019-03-24T18:50:37.243Z,100411.00
2019-03-24T18:53:06.646Z,100407.00
2019-03-24T18:55:35.901Z,100400.00
2019-03-24T18:58:05.659Z,100398.00
2019-03-24T19:00:36.815Z,100398.00
2019-03-24T19:03:06.203Z,100391.00
2019-03-24T19:05:35.628Z,100397.00
2019-03-24T19:08:05.394Z,100397.00
2019-03-24T19:10:35.506Z,100390.00
2019-03-24T19:13:05.227Z,100395.00
2019-03-24T19:15:37.306Z,100394.00
2019-03-24T19:18:07.469Z,100397.00
2019-03-24T19:20:36.281Z,100396.00
2019-03-24T19:23:05.875Z,100398.00
2019-03-24T19:28:13.222Z,100392.00
2019-03-24T19:30:43.319Z,100383.00
2019-03-24T19:33:13.211Z,100378.00
2019-03-24T19:35:43.214Z,100373.00
2019-03-24T19:38:13.393Z,100370.00
2019-03-24T19:40:43.217Z,100371.00
2019-03-24T19:43:12.895Z,100372.00
2019-03-24T19:45:42.645Z,100355.00
2019-03-24T19:48:12.017Z,100352.00
2019-03-24T19:50:41.906Z,100352.00
2019-03-24T19:53:11.607Z,100350.00
2019-03-24T19:55:41.202Z,100350.00
2019-03-24T19:58:10.958Z,100349.00
2019-03-24T20:00:42.745Z,100348.00
2019-03-24T20:03:12.660Z,100332.00
2019-03-24T20:05:42.188Z,100321.00
2019-03-24T20:08:12.353Z,100325.00
2019-03-24T20:10:42.172Z,100325.00
2019-03-24T20:13:12.020Z,100323.00
2019-03-24T20:15:41.835Z,100325.00
2019-03-24T20:18:11.845Z,100325.00
2019-03-24T20:20:41.751Z,100319.00
2019-03-24T20:23:11.348Z,100322.00
2019-03-24T20:25:41.186Z,100315.00
2019-03-24T20:28:10.983Z,100316.00
2019-03-24T20:30:40.940Z,100318.00
2019-03-24T20:33:11.163Z,100310.00
2019-03-24T20:35:40.818Z,100306.00
2019-03-24T20:38:10.623Z,100297.00
2019-03-24T20:40:40.821Z,100301.00
2019-03-24T20:44:36.845Z,100292.00
2019-03-24T20:47:06.975Z,100287.00
2019-03-24T20:49:36.787Z,100290.00
2019-03-24T20:52:06.589Z,100289.00
2019-03-24T20:54:35.962Z,100275.00
2019-03-24T20:57:06.340Z,100285.00
2019-03-24T20:59:35.962Z,100276.00
2019-03-24T21:02:07.601Z,100274.00
2019-03-24T21:04:37.146Z,100269.00
2019-03-24T21:07:08.355Z,100267.00
2019-03-24T21:46:05.467Z,100226.00
2019-03-24T21:52:33.712Z,100212.00
2019-03-24T21:55:03.862Z,100206.00
2019-03-24T22:03:39.910Z,100190.00
2019-03-24T22:06:13.818Z,100194.00
2019-03-24T22:08:43.963Z,100186.00
2019-03-24T22:11:15.818Z,100184.00
2019-03-24T22:13:46.038Z,100183.00
2019-03-24T22:16:16.928Z,100172.00
2019-03-24T22:21:30.800Z,100170.00
2019-03-24T22:24:02.833Z,100167.00
2019-03-24T22:29:37.337Z,100177.00
2019-03-24T22:32:08.866Z,100169.00
2019-03-24T22:34:38.907Z,100166.00
2019-03-24T22:37:15.876Z,100167.00
2019-03-24T22:39:41.888Z,100160.00
2019-03-24T22:42:11.127Z,100160.00
2019-03-24T22:44:42.847Z,100151.00
2019-03-24T22:48:09.856Z,100150.00
2019-03-24T22:52:49.995Z,100153.00
2019-03-24T22:55:21.864Z,100159.00
2019-03-24T22:57:54.828Z,100147.00
2019-03-24T23:00:45.843Z,100143.00
2019-03-24T23:03:16.027Z,100135.00
2019-03-24T23:05:46.895Z,100122.00
2019-03-24T23:08:20.838Z,100127.00
2019-03-24T23:12:50.844Z,100107.00
2019-03-24T23:17:49.953Z,100100.00
2019-03-24T23:20:21.832Z,100096.00
2019-03-24T23:37:17.834Z,100078.00
2019-03-24T23:39:49.833Z,100068.00
2019-03-24T23:42:19.999Z,100075.00
2019-03-24T23:44:50.901Z,100067.00
2019-03-24T23:47:20.920Z,100068.00
